Time;durP1;ratioP1;P1;durP2;ratioP2;P2;SDS_P1;SDS_P2;PMS_P1;PMS_P2;Temp;Humidity;BMP_temperature;BMP_pressure;BME280_temperature;BME280_humidity;BME280_pressure;Samples;Min_cycle;Max_cycle;Signal;HPM_P1;HPM_P2
2024/01/03 00:00:06;;;;;;;53.58;28.83;;;;;;;-142.91;100.00;56616.03;5039704;28;20284;-83
2024/01/03 00:02:33;;;;;;;50.85;27.98;;;;;;;-142.91;100.00;56616.03;5038177;28;20294;-81
2024/01/03 00:05:01;;;;;;;52.25;27.23;;;;;;;-142.91;100.00;56616.03;5043612;28;20242;-82
2024/01/03 00:07:28;;;;;;;50.53;27.63;;;;;;;-142.91;100.00;56616.03;5043295;28;20685;-79
2024/01/03 00:10:00;;;;;;;61.65;29.23;;;;;;;-142.91;100.00;56616.03;5041345;28;20196;-78
2024/01/03 00:12:30;;;;;;;55.05;28.55;;;;;;;-142.91;100.00;56616.03;5041309;28;20201;-80
2024/01/03 00:14:59;;;;;;;48.63;28.52;;;;;;;-142.91;100.00;56616.03;5040367;28;20207;-81
2024/01/03 00:17:25;;;;;;;51.95;29.05;;;;;;;-142.91;100.00;56616.03;5043897;28;20209;-81
2024/01/03 00:19:56;;;;;;;56.80;27.90;;;;;;;-142.91;100.00;56616.03;5044925;28;20215;-83
2024/01/03 00:22:28;;;;;;;47.45;27.70;;;;;;;-142.91;100.00;56616.03;5043425;28;20635;-82
2024/01/03 00:24:55;;;;;;;44.15;24.63;;;;;;;-142.91;100.00;56616.03;5045395;28;20262;-81
2024/01/03 00:27:25;;;;;;;42.88;23.30;;;;;;;-142.91;100.00;56616.03;5043581;28;20286;-82
2024/01/03 00:29:52;;;;;;;38.08;23.00;;;;;;;-142.91;100.00;56616.03;5045399;28;20199;-82
2024/01/03 00:32:21;;;;;;;40.90;23.67;;;;;;;-142.91;100.00;56616.03;5044542;28;20716;-80
2024/01/03 00:34:48;;;;;;;45.50;22.77;;;;;;;-142.91;100.00;56616.03;5028843;28;20218;-79
2024/01/03 00:37:28;;;;;;;51.92;25.00;;;;;;;-142.91;100.00;56616.03;5032605;28;20757;-79
2024/01/03 00:39:56;;;;;;;45.67;24.50;;;;;;;-142.91;100.00;56616.03;5021024;28;20306;-79
2024/01/03 00:42:23;;;;;;;39.45;23.67;;;;;;;-142.91;100.00;56616.03;5020586;28;20201;-78
2024/01/03 00:44:50;;;;;;;47.60;25.20;;;;;;;-142.91;100.00;56616.03;5033104;28;20287;-79
2024/01/03 00:47:18;;;;;;;42.42;23.42;;;;;;;-142.91;100.00;56616.03;5031228;28;20322;-78
2024/01/03 00:49:45;;;;;;;37.47;22.35;;;;;;;-142.91;100.00;56616.03;5037568;28;20199;-78
2024/01/03 00:52:13;;;;;;;40.30;23.73;;;;;;;-142.91;100.00;56616.03;5037127;28;20234;-79
2024/01/03 00:54:41;;;;;;;41.08;23.08;;;;;;;-142.91;100.00;56616.03;5032527;28;20737;-77
2024/01/03 00:57:08;;;;;;;30.98;20.13;;;;;;;-142.91;100.00;56616.03;5032577;28;20243;-80
2024/01/03 00:59:37;;;;;;;36.30;21.58;;;;;;;-142.91;100.00;56616.03;5030971;28;20239;-79
2024/01/03 01:02:04;;;;;;;42.35;25.33;;;;;;;23.25;100.00;56616.03;5032741;28;20203;-79
2024/01/03 01:04:32;;;;;;;48.35;25.30;;;;;;;-142.91;100.00;56616.03;5032355;28;20238;-78
2024/01/03 01:06:59;;;;;;;39.40;26.67;;;;;;;-142.91;100.00;56616.03;5032207;28;20205;-78
2024/01/03 01:09:26;;;;;;;40.50;24.75;;;;;;;-142.91;100.00;56616.03;5032411;28;20200;-80
2024/01/03 01:11:54;;;;;;;48.38;26.85;;;;;;;-142.91;100.00;56616.03;5031861;28;20192;-78
2024/01/03 01:14:20;;;;;;;43.42;24.80;;;;;;;-142.91;100.00;56616.03;5032286;28;20235;-81
2024/01/03 01:16:47;;;;;;;44.67;26.02;;;;;;;-142.91;100.00;56616.03;5033675;28;20352;-78
2024/01/03 01:19:14;;;;;;;39.42;25.15;;;;;;;-142.91;100.00;56616.03;5032098;28;20211;-80
2024/01/03 01:21:42;;;;;;;46.30;26.33;;;;;;;-142.91;100.00;56616.03;5031182;28;20306;-81
2024/01/03 01:24:09;;;;;;;43.75;25.20;;;;;;;-142.91;100.00;56616.03;5030565;28;20226;-81
2024/01/03 01:26:36;;;;;;;42.33;25.15;;;;;;;-142.91;100.00;56616.03;5027869;28;20753;-81
2024/01/03 01:29:04;;;;;;;38.30;23.20;;;;;;;-142.91;100.00;56616.03;5032258;28;20199;-78
2024/01/03 01:31:30;;;;;;;40.55;22.33;;;;;;;-142.91;100.00;56616.03;5032600;28;20282;-79
2024/01/03 01:33:57;;;;;;;41.95;23.85;;;;;;;-142.91;100.00;56616.03;5028268;28;20286;-80
2024/01/03 01:36:24;;;;;;;39.25;22.83;;;;;;;-142.91;100.00;56616.03;5030643;28;20295;-80
2024/01/03 01:38:50;;;;;;;40.97;23.05;;;;;;;-142.91;100.00;56616.03;5029770;28;20291;-81
2024/01/03 01:41:18;;;;;;;39.10;22.92;;;;;;;-142.91;100.00;56616.03;5030966;28;20216;-79
2024/01/03 01:43:44;;;;;;;36.70;22.25;;;;;;;-142.91;100.00;56616.03;5030030;28;20290;-80
2024/01/03 01:46:13;;;;;;;36.28;22.80;;;;;;;-142.91;100.00;56616.03;5042130;28;20301;-79
2024/01/03 01:48:43;;;;;;;33.92;21.40;;;;;;;-142.91;100.00;56616.03;5031613;28;20199;-81
2024/01/03 01:51:11;;;;;;;30.95;20.55;;;;;;;-142.91;100.00;56616.03;5029171;28;20483;-80
2024/01/03 01:53:38;;;;;;;35.00;21.80;;;;;;;-142.91;100.00;56616.03;5034176;28;20203;-80
2024/01/03 01:56:06;;;;;;;36.08;21.90;;;;;;;-142.91;100.00;56616.03;5029681;28;20298;-80
2024/01/03 01:58:33;;;;;;;37.35;20.90;;;;;;;-142.91;100.00;56616.03;5018244;28;20773;-80
2024/01/03 02:01:00;;;;;;;30.73;20.42;;;;;;;-142.91;100.00;56616.03;5028732;28;20306;-81
2024/01/03 02:03:28;;;;;;;39.53;22.98;;;;;;;-142.91;100.00;56616.03;5028312;28;20291;-82
2024/01/03 02:05:55;;;;;;;35.05;20.52;;;;;;;-142.91;100.00;56616.03;5021240;28;20397;-80
2024/01/03 02:08:22;;;;;;;34.10;20.83;;;;;;;-142.91;100.00;56616.03;5030672;28;20274;-79
2024/01/03 02:10:48;;;;;;;36.15;20.65;;;;;;;-142.91;100.00;56616.03;5029411;28;20621;-80
2024/01/03 02:13:15;;;;;;;35.47;20.95;;;;;;;-142.91;100.00;56616.03;5029506;28;20766;-79
2024/01/03 02:15:41;;;;;;;38.80;21.55;;;;;;;-142.91;100.00;56616.03;5031031;28;20291;-79
2024/01/03 02:18:09;;;;;;;49.67;25.77;;;;;;;-142.91;100.00;56616.03;5031654;28;20292;-79
2024/01/03 02:20:37;;;;;;;35.88;22.27;;;;;;;-142.91;100.00;56616.03;5030482;28;20306;-78
2024/01/03 02:23:06;;;;;;;38.75;23.25;;;;;;;-142.91;100.00;56616.03;5030518;28;20204;-79
2024/01/03 02:25:32;;;;;;;37.78;22.10;;;;;;;-142.91;100.00;56616.03;5030766;28;20208;-80
2024/01/03 02:28:00;;;;;;;44.40;23.65;;;;;;;-142.91;100.00;56616.03;5030082;28;20601;-80
2024/01/03 02:30:27;;;;;;;34.28;21.35;;;;;;;-142.91;100.00;56616.03;5033937;28;20291;-81
2024/01/03 02:32:53;;;;;;;36.40;22.73;;;;;;;-142.91;100.00;56616.03;5030558;28;20241;-78
2024/01/03 02:35:20;;;;;;;38.85;23.60;;;;;;;-142.91;100.00;56616.03;5030461;28;20737;-82
2024/01/03 02:37:47;;;;;;;40.75;23.10;;;;;;;-142.91;100.00;56616.03;5030391;28;20234;-81
2024/01/03 02:40:15;;;;;;;38.65;23.42;;;;;;;-142.91;100.00;56616.03;5030806;28;20725;-80
2024/01/03 02:42:41;;;;;;;38.35;23.02;;;;;;;-142.91;100.00;56616.03;5045199;28;20227;-81
2024/01/03 02:45:08;;;;;;;31.15;19.73;;;;;;;-142.91;100.00;56616.03;5048986;28;20706;-80
2024/01/03 02:47:36;;;;;;;33.83;20.85;;;;;;;-142.91;100.00;56616.03;5035530;28;20286;-79
2024/01/03 02:50:03;;;;;;;30.60;21.83;;;;;;;-142.91;100.00;56616.03;5039503;28;20246;-79
2024/01/03 02:52:29;;;;;;;42.28;20.30;;;;;;;-142.91;100.00;56616.03;5030188;28;20279;-81
2024/01/03 02:54:56;;;;;;;34.67;21.48;;;;;;;-142.91;100.00;56616.03;5031000;28;20291;-80
2024/01/03 02:57:24;;;;;;;27.63;16.77;;;;;;;-142.91;100.00;56616.03;5041041;28;20784;-80
2024/01/03 02:59:51;;;;;;;30.80;17.55;;;;;;;-142.91;100.00;56616.03;5040253;28;20623;-79
2024/01/03 03:02:18;;;;;;;26.02;18.10;;;;;;;-142.91;100.00;56616.03;5030592;28;20801;-81
2024/01/03 03:04:44;;;;;;;35.78;21.08;;;;;;;-142.91;100.00;56616.03;5030947;28;20294;-79
2024/01/03 03:07:11;;;;;;;38.65;20.90;;;;;;;-142.91;100.00;56616.03;5029634;28;20283;-80
2024/01/03 03:09:38;;;;;;;38.55;21.15;;;;;;;-142.91;100.00;56616.03;5029965;28;20712;-78
2024/01/03 03:12:05;;;;;;;28.92;18.17;;;;;;;-142.91;100.00;56616.03;5030132;28;20492;-77
2024/01/03 03:14:33;;;;;;;30.42;18.35;;;;;;;-142.91;100.00;56616.03;5030401;28;20307;-80
2024/01/03 03:16:59;;;;;;;31.95;16.90;;;;;;;-142.91;100.00;56616.03;5029967;28;20648;-77
2024/01/03 03:19:27;;;;;;;29.33;18.02;;;;;;;-142.91;100.00;56616.03;5030225;28;20290;-78
2024/01/03 03:21:53;;;;;;;26.30;17.60;;;;;;;-142.91;100.00;56616.03;5029079;28;20314;-78
2024/01/03 03:24:20;;;;;;;27.45;18.60;;;;;;;-142.91;100.00;56616.03;5041676;28;20286;-78
2024/01/03 03:26:48;;;;;;;27.42;17.70;;;;;;;-142.91;100.00;56616.03;5030499;28;20286;-79
2024/01/03 03:29:14;;;;;;;30.88;18.85;;;;;;;-142.91;100.00;56616.03;5029659;28;20753;-78
2024/01/03 03:31:42;;;;;;;32.85;19.35;;;;;;;-142.91;100.00;56616.03;5042080;28;20227;-79
2024/01/03 03:34:09;;;;;;;26.00;17.70;;;;;;;-142.91;100.00;56616.03;5029665;28;20294;-79
2024/01/03 03:36:36;;;;;;;28.02;17.20;;;;;;;-142.91;100.00;56616.03;5029584;28;20273;-79
2024/01/03 03:39:02;;;;;;;21.88;15.77;;;;;;;-142.91;100.00;56616.03;5016972;28;20638;-78
2024/01/03 03:41:29;;;;;;;29.55;16.80;;;;;;;-142.91;100.00;56616.03;5029373;28;20277;-79
2024/01/03 03:43:58;;;;;;;25.80;17.98;;;;;;;-142.91;100.00;56616.03;5029834;28;20291;-78
2024/01/03 03:46:24;;;;;;;29.92;16.83;;;;;;;-142.91;100.00;56616.03;5037107;28;20222;-78
2024/01/03 03:48:52;;;;;;;30.73;18.17;;;;;;;-142.91;100.00;56616.03;5034515;28;20294;-80
2024/01/03 03:51:19;;;;;;;30.25;18.00;;;;;;;-142.91;100.00;56616.03;5029609;28;20337;-79
2024/01/03 03:53:46;;;;;;;35.88;19.77;;;;;;;-142.91;100.00;56616.03;5028950;28;20286;-80
2024/01/03 03:56:21;;;;;;;27.55;17.50;;;;;;;-142.91;100.00;56616.03;5029680;28;20242;-79
2024/01/03 03:58:48;;;;;;;32.25;19.92;;;;;;;-142.91;100.00;56616.03;5023089;28;20247;-78
2024/01/03 04:01:15;;;;;;;28.48;18.45;;;;;;;-142.91;100.00;56616.03;5019524;28;20819;-76
2024/01/03 04:03:41;;;;;;;30.75;20.00;;;;;;;-142.91;100.00;56616.03;5036802;28;20693;-78
2024/01/03 04:06:09;;;;;;;31.13;19.48;;;;;;;-142.91;100.00;56616.03;5028785;28;20239;-76
2024/01/03 04:08:36;;;;;;;40.72;20.10;;;;;;;-142.91;100.00;56616.03;5028981;28;20251;-75
2024/01/03 04:11:03;;;;;;;32.80;19.77;;;;;;;-142.91;100.00;56616.03;5028934;28;20275;-76
2024/01/03 04:13:30;;;;;;;36.80;21.10;;;;;;;-142.91;100.00;56616.03;5028398;28;20753;-78
2024/01/03 04:15:57;;;;;;;32.90;21.17;;;;;;;-142.91;100.00;56616.03;5029902;28;20235;-76
2024/01/03 04:18:23;;;;;;;53.35;27.05;;;;;;;-142.91;100.00;56616.03;5029730;28;20689;-79
2024/01/03 04:20:50;;;;;;;43.83;25.77;;;;;;;-142.91;100.00;56616.03;5029440;28;20311;-81
2024/01/03 04:23:18;;;;;;;44.67;25.48;;;;;;;-142.91;100.00;56616.03;5029508;28;20279;-81
2024/01/03 04:25:46;;;;;;;47.20;25.40;;;;;;;-142.91;100.00;56616.03;5020817;28;20235;-80
2024/01/03 04:28:13;;;;;;;41.28;25.83;;;;;;;-142.91;100.00;56616.03;5029954;28;20636;-78
2024/01/03 04:30:39;;;;;;;40.38;24.23;;;;;;;-142.91;100.00;56616.03;5029720;28;20214;-80
2024/01/03 04:33:06;;;;;;;43.28;24.30;;;;;;;-142.91;100.00;56616.03;5033222;28;20235;-77
2024/01/03 04:35:33;;;;;;;44.53;25.15;;;;;;;-142.91;100.00;56616.03;5034272;28;20207;-77
2024/01/03 04:38:02;;;;;;;35.58;23.35;;;;;;;-142.91;100.00;56616.03;5032960;28;20204;-76
2024/01/03 04:40:30;;;;;;;39.20;23.83;;;;;;;-142.91;100.00;56616.03;5023483;28;20291;-77
2024/01/03 04:42:58;;;;;;;38.28;23.00;;;;;;;-142.91;100.00;56616.03;5032168;28;20718;-76
2024/01/03 04:45:24;;;;;;;36.40;21.13;;;;;;;-142.91;100.00;56616.03;5032954;28;20210;-76
2024/01/03 04:47:51;;;;;;;34.80;21.65;;;;;;;-142.91;100.00;56616.03;5035341;28;20231;-79
2024/01/03 04:50:18;;;;;;;31.58;20.00;;;;;;;-142.91;100.00;56616.03;5032322;28;20749;-78
2024/01/03 04:52:45;;;;;;;28.33;19.23;;;;;;;-142.91;100.00;56616.03;5032309;28;20697;-78
2024/01/03 04:55:11;;;;;;;33.65;18.80;;;;;;;-142.91;100.00;56616.03;5032823;28;20231;-77
2024/01/03 04:57:39;;;;;;;28.58;17.98;;;;;;;-142.91;100.00;56616.03;5032501;28;20238;-80
2024/01/03 05:00:07;;;;;;;32.00;19.58;;;;;;;-142.91;100.00;56616.03;5033826;28;20235;-79
2024/01/03 05:02:33;;;;;;;32.33;19.27;;;;;;;-142.91;100.00;56616.03;5032730;28;20251;-77
2024/01/03 05:05:00;;;;;;;29.27;19.20;;;;;;;-142.91;100.00;56616.03;5032453;28;20266;-77
2024/01/03 05:07:27;;;;;;;30.15;19.17;;;;;;;-142.91;100.00;56616.03;5037880;28;20723;-78
2024/01/03 05:09:53;;;;;;;36.28;19.48;;;;;;;-142.91;100.00;56616.03;5039412;28;20302;-78
2024/01/03 05:12:20;;;;;;;34.40;20.35;;;;;;;-142.91;100.00;56616.03;5039030;28;20258;-78
2024/01/03 05:14:48;;;;;;;35.00;21.05;;;;;;;-142.91;100.00;56616.03;5027399;28;20287;-77
2024/01/03 05:17:15;;;;;;;40.22;21.60;;;;;;;-142.91;100.00;56616.03;5030575;28;20633;-75
2024/01/03 05:19:43;;;;;;;31.45;20.02;;;;;;;-142.91;100.00;56616.03;5031921;28;20235;-77
2024/01/03 05:22:09;;;;;;;35.63;22.58;;;;;;;-142.91;100.00;56616.03;5036744;28;20279;-77
2024/01/03 05:24:36;;;;;;;33.17;20.70;;;;;;;-142.91;100.00;56616.03;5031750;28;20618;-78
2024/01/03 05:27:03;;;;;;;30.95;20.77;;;;;;;-142.91;100.00;56616.03;5032068;28;20748;-77
2024/01/03 05:29:29;;;;;;;32.47;19.88;;;;;;;-142.91;100.00;56616.03;5032025;28;20242;-77
2024/01/03 05:31:57;;;;;;;32.13;20.67;;;;;;;-142.91;100.00;56616.03;5035102;28;20196;-78
2024/01/03 05:34:24;;;;;;;42.60;23.15;;;;;;;-142.91;100.00;56616.03;5036039;28;20621;-80
2024/01/03 05:36:51;;;;;;;42.90;23.90;;;;;;;-142.91;100.00;56616.03;5047639;28;20242;-81
2024/01/03 05:39:17;;;;;;;41.75;24.67;;;;;;;-142.91;100.00;56616.03;5034430;28;20647;-78
2024/01/03 05:41:44;;;;;;;37.97;22.50;;;;;;;-142.91;100.00;56616.03;5038984;28;20315;-82
2024/01/03 05:44:12;;;;;;;37.83;20.33;;;;;;;-142.91;100.00;56616.03;5032107;28;20689;-79
2024/01/03 05:46:39;;;;;;;31.30;18.60;;;;;;;-142.91;100.00;56616.03;5033896;28;20525;-79
2024/01/03 05:49:07;;;;;;;45.00;24.08;;;;;;;-142.91;100.00;56616.03;5031426;28;20242;-78
2024/01/03 05:51:34;;;;;;;36.55;17.92;;;;;;;-142.91;100.00;56616.03;5032058;28;20239;-79
2024/01/03 05:54:00;;;;;;;28.33;16.25;;;;;;;-142.91;100.00;56616.03;5032567;28;20290;-79
2024/01/03 05:56:29;;;;;;;26.10;16.02;;;;;;;-142.91;100.00;56616.03;5021928;28;20240;-79
2024/01/03 05:58:55;;;;;;;23.75;14.40;;;;;;;-142.91;100.00;56616.03;5025134;28;20295;-80
2024/01/03 06:01:22;;;;;;;25.15;14.85;;;;;;;-142.91;100.00;56616.03;5029852;28;20203;-79
2024/01/03 06:03:49;;;;;;;23.60;13.82;;;;;;;-142.91;100.00;56616.03;5029406;28;20294;-79
2024/01/03 06:06:17;;;;;;;21.85;14.23;;;;;;;-142.91;100.00;56616.03;5026296;28;20677;-79
2024/01/03 06:08:44;;;;;;;22.60;14.23;;;;;;;-142.91;100.00;56616.03;5033250;28;20235;-78
2024/01/03 06:11:12;;;;;;;22.73;13.40;;;;;;;-142.91;100.00;56616.03;5031581;28;20761;-75
2024/01/03 06:13:39;;;;;;;21.92;13.07;;;;;;;-142.91;100.00;56616.03;5029949;28;20211;-77
2024/01/03 06:16:06;;;;;;;21.50;13.52;;;;;;;-142.91;100.00;56616.03;5031288;28;20406;-77
2024/01/03 06:18:33;;;;;;;17.08;12.77;;;;;;;-142.91;100.00;56616.03;5031292;28;20231;-78
2024/01/03 06:21:00;;;;;;;22.88;13.82;;;;;;;-142.91;100.00;56616.03;5030965;28;20263;-77
2024/01/03 06:23:27;;;;;;;30.73;16.80;;;;;;;-142.91;100.00;56616.03;5042155;28;20309;-76
2024/01/03 06:25:54;;;;;;;27.00;16.67;;;;;;;-142.91;100.00;56616.03;5032139;28;20257;-78
2024/01/03 06:28:21;;;;;;;46.22;23.80;;;;;;;-142.91;100.00;56616.03;5031832;28;20724;-79
2024/01/03 06:30:48;;;;;;;32.92;19.17;;;;;;;-142.91;100.00;56616.03;5030964;28;20610;-77
2024/01/03 06:33:14;;;;;;;26.75;17.38;;;;;;;-142.91;100.00;56616.03;5031123;28;20659;-77
2024/01/03 06:35:41;;;;;;;23.92;15.85;;;;;;;-142.91;100.00;56616.03;5030896;28;20234;-77
2024/01/03 06:38:07;;;;;;;24.10;14.52;;;;;;;-142.91;100.00;56616.03;5038194;28;20239;-78
2024/01/03 06:40:35;;;;;;;22.67;15.75;;;;;;;-142.91;100.00;56616.03;5030864;28;20265;-78
2024/01/03 06:43:02;;;;;;;22.67;15.35;;;;;;;-142.91;100.00;56616.03;5030723;28;20281;-77
2024/01/03 06:45:29;;;;;;;22.33;14.60;;;;;;;-142.91;100.00;56616.03;5030566;28;20282;-77
2024/01/03 06:47:55;;;;;;;26.38;14.85;;;;;;;-142.91;100.00;56616.03;5030606;28;20234;-76
2024/01/03 06:50:22;;;;;;;21.35;15.02;;;;;;;-142.91;100.00;56616.03;5030625;28;20286;-79
2024/01/03 06:52:48;;;;;;;21.15;13.50;;;;;;;-142.91;100.00;56616.03;5030675;28;20192;-77
2024/01/03 06:55:15;;;;;;;22.05;13.90;;;;;;;-142.91;100.00;56616.03;5029269;28;20657;-79
2024/01/03 06:57:44;;;;;;;23.48;14.43;;;;;;;-142.91;100.00;56616.03;5030753;28;20283;-79
2024/01/03 07:00:12;;;;;;;20.42;14.30;;;;;;;-142.91;100.00;56616.03;5031079;28;20246;-79
2024/01/03 07:02:39;;;;;;;17.77;13.98;;;;;;;-142.91;100.00;56616.03;5036351;28;20763;-81
2024/01/03 07:05:06;;;;;;;21.30;15.02;;;;;;;-142.91;100.00;56616.03;5035334;28;20235;-78
2024/01/03 07:07:32;;;;;;;20.58;15.02;;;;;;;-142.91;100.00;56616.03;5037557;28;20689;-81
2024/01/03 07:09:59;;;;;;;24.33;15.77;;;;;;;-142.91;100.00;56616.03;5030827;28;20295;-79
2024/01/03 07:12:26;;;;;;;31.10;16.80;;;;;;;-142.91;100.00;56616.03;5030645;28;20254;-78
2024/01/03 07:14:54;;;;;;;26.42;16.75;;;;;;;-142.91;100.00;56616.03;5029646;28;20658;-77
2024/01/03 07:17:20;;;;;;;27.27;15.13;;;;;;;-142.91;100.00;56616.03;5030899;28;20287;-77
2024/01/03 07:19:47;;;;;;;31.52;17.33;;;;;;;-142.91;100.00;56616.03;5029701;28;20199;-78
2024/01/03 07:22:13;;;;;;;22.52;15.80;;;;;;;-142.91;100.00;56616.03;5029935;28;20788;-78
2024/01/03 07:24:40;;;;;;;24.85;16.10;;;;;;;-142.91;100.00;56616.03;5030290;28;20290;-79
2024/01/03 07:27:07;;;;;;;29.60;16.75;;;;;;;-142.91;100.00;56616.03;5029973;28;20711;-79
2024/01/03 07:29:33;;;;;;;29.80;18.48;;;;;;;-142.91;100.00;56616.03;5030132;28;20212;-77
2024/01/03 07:32:01;;;;;;;26.05;17.00;;;;;;;-142.91;100.00;56616.03;5036108;28;20195;-80
2024/01/03 07:34:28;;;;;;;28.15;18.45;;;;;;;-142.91;100.00;56616.03;5031539;28;20211;-78
2024/01/03 07:36:55;;;;;;;29.55;19.88;;;;;;;-142.91;100.00;56616.03;5031475;28;20267;-79
2024/01/03 07:39:21;;;;;;;30.40;18.35;;;;;;;-142.91;100.00;56616.03;5029890;28;20286;-78
2024/01/03 07:41:48;;;;;;;33.17;18.02;;;;;;;-142.91;100.00;56616.03;5029524;28;20673;-79
2024/01/03 07:44:14;;;;;;;32.22;18.83;;;;;;;-142.91;100.00;56616.03;5029516;28;20299;-79
2024/01/03 07:46:41;;;;;;;29.05;18.77;;;;;;;-142.91;100.00;56616.03;5030058;28;20231;-78
2024/01/03 07:49:10;;;;;;;27.50;18.80;;;;;;;-142.91;100.00;56616.03;5030373;28;20202;-78
2024/01/03 07:51:38;;;;;;;26.10;17.85;;;;;;;-142.91;100.00;56616.03;5020592;28;20215;-77
2024/01/03 07:54:07;;;;;;;40.95;19.98;;;;;;;-142.91;100.00;56616.03;5029994;28;20204;-79
2024/01/03 07:56:33;;;;;;;56.75;28.55;;;;;;;-142.91;100.00;56616.03;5020523;28;20594;-78
2024/01/03 07:59:00;;;;;;;33.47;21.15;;;;;;;-142.91;100.00;56616.03;5024781;28;20238;-80
2024/01/03 08:01:27;;;;;;;31.73;20.52;;;;;;;-142.91;100.00;56616.03;5027106;28;20404;-79
2024/01/03 08:03:54;;;;;;;34.08;21.55;;;;;;;-142.91;100.00;56616.03;5035025;28;20307;-78
2024/01/03 08:06:22;;;;;;;37.72;24.63;;;;;;;-142.91;100.00;56616.03;5030939;28;20277;-77
2024/01/03 08:08:49;;;;;;;43.10;26.83;;;;;;;-142.91;100.00;56616.03;5031887;28;20291;-78
2024/01/03 08:11:15;;;;;;;56.50;31.17;;;;;;;-142.91;100.00;56616.03;5031656;28;20204;-79
2024/01/03 08:13:42;;;;;;;50.97;32.60;;;;;;;-142.91;100.00;56616.03;5031579;28;20196;-76
2024/01/03 08:16:10;;;;;;;53.30;33.72;;;;;;;-142.91;100.00;56616.03;5033536;28;20650;-77
2024/01/03 08:18:38;;;;;;;63.05;39.70;;;;;;;-142.91;100.00;56616.03;5033785;28;20211;-74
2024/01/03 08:21:05;;;;;;;71.28;43.85;;;;;;;-142.91;100.00;56616.03;5033342;28;20759;-75
2024/01/03 08:23:33;;;;;;;83.88;47.08;;;;;;;-142.91;100.00;56616.03;5031845;28;20670;-80
2024/01/03 08:26:00;;;;;;;76.90;45.50;;;;;;;-142.91;100.00;56616.03;4998085;28;20350;-74
2024/01/03 08:28:27;;;;;;;72.82;47.13;;;;;;;-142.91;100.00;56616.03;5002030;28;20228;-77
2024/01/03 08:30:53;;;;;;;76.13;44.53;;;;;;;-142.91;100.00;56616.03;5002797;28;20243;-78
2024/01/03 08:33:20;;;;;;;64.72;43.88;;;;;;;-142.91;100.00;56616.03;5013585;28;21459;-77
2024/01/03 08:35:47;;;;;;;68.43;42.55;;;;;;;-142.91;100.00;56616.03;5017811;28;20303;-72
2024/01/03 08:38:13;;;;;;;76.45;40.88;;;;;;;-142.91;100.00;56616.03;5035383;28;20235;-80
2024/01/03 08:40:41;;;;;;;64.60;40.70;;;;;;;-142.91;100.00;56616.03;5043362;28;20282;-75
2024/01/03 08:43:08;;;;;;;45.70;30.38;;;;;;;-142.91;100.00;56616.03;5038284;28;20318;-75
2024/01/03 08:45:34;;;;;;;37.78;26.35;;;;;;;-142.91;100.00;56616.03;5037295;28;20286;-74
2024/01/03 08:48:03;;;;;;;48.83;30.73;;;;;;;-142.91;100.00;56616.03;5043687;28;20658;-79
2024/01/03 08:50:29;;;;;;;65.88;39.08;;;;;;;-142.91;100.00;56616.03;5041113;28;20200;-75
2024/01/03 08:52:56;;;;;;;59.13;38.30;;;;;;;-142.91;100.00;56616.03;5039286;28;20209;-71
2024/01/03 08:55:23;;;;;;;60.42;39.15;;;;;;;-142.91;100.00;56616.03;5041797;28;20226;-78
2024/01/03 08:57:56;;;;;;;63.90;39.38;;;;;;;-142.91;100.00;56616.03;5040444;28;20286;-82
2024/01/03 09:00:23;;;;;;;65.78;40.47;;;;;;;-142.91;100.00;56616.03;5036327;28;20211;-81
2024/01/03 09:02:49;;;;;;;60.85;36.85;;;;;;;-142.91;100.00;56616.03;5041731;28;20325;-82
2024/01/03 09:05:16;;;;;;;58.22;33.83;;;;;;;-142.91;100.00;56616.03;5043081;28;20768;-81
2024/01/03 09:07:43;;;;;;;51.90;31.90;;;;;;;-142.91;100.00;56616.03;5043580;28;20273;-82
2024/01/03 09:10:10;;;;;;;42.88;29.40;;;;;;;-142.91;100.00;56616.03;5039165;28;20242;-80
2024/01/03 09:12:37;;;;;;;43.08;28.60;;;;;;;-142.91;100.00;56616.03;5045092;28;20244;-79
2024/01/03 09:15:06;;;;;;;49.97;27.52;;;;;;;-142.91;100.00;56616.03;5037520;28;20752;-82
2024/01/03 09:17:33;;;;;;;38.85;25.00;;;;;;;-142.91;100.00;56616.03;5036741;28;20286;-81
2024/01/03 09:20:00;;;;;;;36.95;24.55;;;;;;;-142.91;100.00;56616.03;5028537;28;20234;-80
2024/01/03 09:22:26;;;;;;;33.70;22.73;;;;;;;-142.91;100.00;56616.03;5037860;28;20235;-81
2024/01/03 09:24:53;;;;;;;36.58;23.52;;;;;;;-142.91;100.00;56616.03;5019077;28;20286;-86
2024/01/03 09:27:20;;;;;;;46.15;24.75;;;;;;;-142.91;100.00;56616.03;5020581;28;20302;-79
2024/01/03 09:29:48;;;;;;;48.65;31.15;;;;;;;-142.91;100.00;56616.03;5040064;28;20235;-79
2024/01/03 09:32:17;;;;;;;55.15;38.38;;;;;;;-142.91;100.00;56616.03;5029237;28;20210;-78
2024/01/03 09:34:44;;;;;;;46.10;33.85;;;;;;;-142.91;100.00;56616.03;5037848;28;20280;-79
2024/01/03 09:37:11;;;;;;;49.47;31.13;;;;;;;-142.91;100.00;56616.03;5042177;28;20286;-81
2024/01/03 09:39:37;;;;;;;82.00;42.65;;;;;;;-142.91;100.00;56616.03;5044177;28;20303;-80
2024/01/03 09:42:05;;;;;;;52.95;30.95;;;;;;;-142.91;100.00;56616.03;5041763;28;20308;-78
2024/01/03 09:44:32;;;;;;;47.08;30.30;;;;;;;-142.91;100.00;56616.03;5039381;28;20306;-78
2024/01/03 09:46:59;;;;;;;48.95;28.38;;;;;;;-142.91;100.00;56616.03;5042471;28;20207;-79
2024/01/03 09:49:27;;;;;;;49.25;32.33;;;;;;;-142.91;100.00;56616.03;5036199;28;20294;-80
2024/01/03 09:51:56;;;;;;;43.05;28.77;;;;;;;-142.91;100.00;56616.03;5042072;28;20831;-79
2024/01/03 09:54:22;;;;;;;49.67;30.15;;;;;;;-142.91;100.00;56616.03;5042770;28;20299;-78
2024/01/03 09:56:51;;;;;;;37.03;25.65;;;;;;;-142.91;100.00;56616.03;5041242;28;20293;-76
2024/01/03 09:59:18;;;;;;;36.90;23.73;;;;;;;-142.91;100.00;56616.03;5035453;28;20195;-79
2024/01/03 10:01:55;;;;;;;42.70;21.80;;;;;;;-142.91;100.00;56616.03;5039431;28;20207;-80
2024/01/03 10:04:21;;;;;;;33.25;20.23;;;;;;;-142.91;100.00;56616.03;5036002;28;20226;-80
2024/01/03 10:06:53;;;;;;;28.10;17.67;;;;;;;-142.91;100.00;56616.03;5035901;28;20662;-80
2024/01/03 10:09:20;;;;;;;29.02;17.88;;;;;;;-142.91;100.00;56616.03;5037970;28;20191;-78
2024/01/03 10:11:47;;;;;;;29.45;19.15;;;;;;;-142.91;100.00;56616.03;5038887;28;20762;-80
2024/01/03 10:14:18;;;;;;;31.60;18.35;;;;;;;-142.91;100.00;56616.03;5042409;28;20207;-79
2024/01/03 10:16:45;;;;;;;28.45;15.32;;;;;;;-142.91;100.00;56616.03;5039189;28;20204;-80
2024/01/03 10:19:13;;;;;;;25.33;16.45;;;;;;;-142.91;100.00;56616.03;5042580;28;20469;-79
2024/01/03 10:21:47;;;;;;;24.30;16.15;;;;;;;-142.91;100.00;56616.03;5042455;28;20330;-78
2024/01/03 10:24:15;;;;;;;24.88;16.25;;;;;;;-142.91;100.00;56616.03;5042422;28;20322;-80
2024/01/03 10:26:41;;;;;;;25.73;16.92;;;;;;;-142.91;100.00;56616.03;5039851;28;20282;-80
2024/01/03 10:29:09;;;;;;;32.45;16.33;;;;;;;-142.91;100.00;56616.03;5038761;28;20203;-78
2024/01/03 10:31:35;;;;;;;28.02;16.25;;;;;;;-142.91;100.00;56616.03;5039372;28;20642;-79
2024/01/03 10:34:04;;;;;;;25.20;16.20;;;;;;;-142.91;100.00;56616.03;5040872;28;20286;-77
2024/01/03 10:36:35;;;;;;;27.55;16.45;;;;;;;-142.91;100.00;56616.03;5037322;28;20204;-78
2024/01/03 10:39:04;;;;;;;21.85;15.35;;;;;;;-142.91;100.00;56616.03;5040610;28;20286;-78
2024/01/03 10:41:32;;;;;;;22.17;14.27;;;;;;;-142.91;100.00;56616.03;5040361;28;20691;-79
2024/01/03 10:44:01;;;;;;;24.85;15.40;;;;;;;-142.91;100.00;56616.03;5041097;28;20688;-79
2024/01/03 10:46:28;;;;;;;24.75;17.50;;;;;;;-142.91;100.00;56616.03;5041893;28;20221;-80
2024/01/03 10:48:55;;;;;;;28.05;19.38;;;;;;;-142.91;100.00;56616.03;5037264;28;20213;-77
2024/01/03 10:51:24;;;;;;;28.85;18.75;;;;;;;-142.91;100.00;56616.03;5032826;28;20298;-79
2024/01/03 10:53:52;;;;;;;28.17;18.80;;;;;;;-142.91;100.00;56616.03;5040309;28;20203;-80